createdAt,value
2019-02-09T00:01:25.828Z,17.30
2019-02-09T00:03:57.292Z,16.03
2019-02-09T00:06:27.710Z,15.83
2019-02-09T00:08:58.010Z,15.67
2019-02-09T00:11:28.301Z,15.57
2019-02-09T00:13:58.579Z,14.67
2019-02-09T00:16:29.226Z,15.80
2019-02-09T00:18:59.507Z,14.97
2019-02-09T00:21:29.804Z,15.83
2019-02-09T00:24:00.076Z,15.97
2019-02-09T00:26:30.347Z,16.13
2019-02-09T00:29:00.662Z,15.40
2019-02-09T00:31:30.963Z,15.13
2019-02-09T00:34:01.325Z,14.93
2019-02-09T00:36:31.629Z,14.70
2019-02-09T00:39:01.919Z,14.27
2019-02-09T00:41:33.268Z,14.70
2019-02-09T00:44:03.539Z,14.93
2019-02-09T00:46:33.878Z,14.60
2019-02-09T00:49:04.172Z,15.80
2019-02-09T00:51:34.469Z,15.67
2019-02-09T00:54:04.773Z,15.13
2019-02-09T00:56:35.041Z,14.90
2019-02-09T00:59:05.310Z,14.57
2019-02-09T01:01:35.608Z,13.53
2019-02-09T01:04:05.913Z,13.90
2019-02-09T01:06:36.242Z,15.60
2019-02-09T01:09:09.794Z,14.80
2019-02-09T01:11:40.076Z,14.60
2019-02-09T01:14:10.362Z,14.60
2019-02-09T01:16:40.646Z,13.20
2019-02-09T01:19:12.031Z,13.87
2019-02-09T01:21:42.301Z,13.97
2019-02-09T01:24:12.609Z,13.37
2019-02-09T01:26:42.925Z,13.47
2019-02-09T01:29:13.224Z,13.03
2019-02-09T01:31:43.593Z,14.37
2019-02-09T01:34:13.871Z,12.53
2019-02-09T01:36:44.136Z,13.30
2019-02-09T01:39:14.409Z,12.87
2019-02-09T01:41:44.724Z,14.07
2019-02-09T01:44:15.031Z,13.43
2019-02-09T01:46:45.329Z,13.57
2019-02-09T01:49:15.683Z,14.00
2019-02-09T01:51:46.015Z,14.33
2019-02-09T01:54:16.327Z,14.73
2019-02-09T01:56:46.653Z,13.67
2019-02-09T01:59:16.937Z,14.53
2019-02-09T02:01:47.209Z,14.93
2019-02-09T02:04:17.583Z,13.60
2019-02-09T02:06:47.854Z,14.20
2019-02-09T02:09:18.148Z,14.50
2019-02-09T02:11:48.427Z,13.27
2019-02-09T02:14:18.677Z,14.30
2019-02-09T02:16:49.232Z,14.80
2019-02-09T02:19:19.550Z,13.93
2019-02-09T02:21:49.842Z,14.67
2019-02-09T02:24:20.130Z,15.17
2019-02-09T02:26:50.438Z,14.13
2019-02-09T02:29:20.753Z,14.73
2019-02-09T02:31:51.064Z,14.70
2019-02-09T02:34:21.337Z,14.60
2019-02-09T02:36:51.622Z,14.47
2019-02-09T02:39:21.892Z,13.33
2019-02-09T02:41:52.183Z,13.17
2019-02-09T02:44:22.483Z,14.40
2019-02-09T02:46:52.755Z,14.97
2019-02-09T02:49:23.035Z,14.03
2019-02-09T02:51:53.323Z,16.50
2019-02-09T02:54:23.631Z,14.27
2019-02-09T02:56:53.953Z,14.57
2019-02-09T02:59:24.244Z,12.70
2019-02-09T03:01:54.530Z,13.57
2019-02-09T03:04:24.824Z,14.10
2019-02-09T03:06:55.097Z,13.93
2019-02-09T03:09:25.415Z,13.40
2019-02-09T03:11:55.727Z,13.47
2019-02-09T03:14:25.987Z,14.87
2019-02-09T03:16:56.295Z,14.63
2019-02-09T03:19:26.589Z,14.53
2019-02-09T03:21:56.857Z,12.23
2019-02-09T03:24:27.166Z,13.63
2019-02-09T03:26:57.431Z,13.03
2019-02-09T03:29:27.725Z,12.90
2019-02-09T03:31:58.038Z,13.93
2019-02-09T03:34:28.303Z,13.90
2019-02-09T03:36:58.598Z,14.67
2019-02-09T03:39:28.878Z,13.00
2019-02-09T03:41:59.282Z,14.20
2019-02-09T03:44:29.591Z,12.97
2019-02-09T03:46:59.890Z,12.87
2019-02-09T03:49:30.180Z,12.07
2019-02-09T03:52:00.594Z,12.67
2019-02-09T03:54:30.871Z,13.57
2019-02-09T03:57:01.139Z,12.97
2019-02-09T03:59:31.409Z,12.30
2019-02-09T04:02:01.864Z,12.77
2019-02-09T04:04:32.146Z,11.77
2019-02-09T04:07:02.436Z,11.93
2019-02-09T04:09:32.736Z,12.60
2019-02-09T04:12:03.902Z,12.20
2019-02-09T04:14:34.200Z,12.17
2019-02-09T04:17:04.497Z,12.37
2019-02-09T04:19:34.853Z,10.87
2019-02-09T04:22:05.121Z,11.50
2019-02-09T04:24:35.404Z,12.27
2019-02-09T04:27:05.771Z,13.23
2019-02-09T04:29:36.120Z,12.10
2019-02-09T04:32:06.673Z,12.13
2019-02-09T04:34:36.949Z,11.67
2019-02-09T04:37:07.238Z,10.87
2019-02-09T04:39:37.559Z,11.63
2019-02-09T04:42:07.823Z,12.37
2019-02-09T04:44:38.110Z,11.10
2019-02-09T04:47:08.372Z,10.40
2019-02-09T04:49:38.666Z,17.30
2019-02-09T04:52:09.036Z,12.97
2019-02-09T04:54:39.345Z,12.17
2019-02-09T04:57:10.915Z,11.93
2019-02-09T04:59:41.250Z,11.17
2019-02-09T05:02:11.591Z,11.30
2019-02-09T05:04:41.864Z,11.40
2019-02-09T05:07:12.137Z,11.13
2019-02-09T05:09:44.418Z,11.57
2019-02-09T05:12:14.882Z,11.97
2019-02-09T05:14:45.166Z,10.07
2019-02-09T05:17:15.459Z,10.50
2019-02-09T05:19:45.791Z,10.63
2019-02-09T05:22:16.097Z,10.37
2019-02-09T05:24:46.579Z,10.33
2019-02-09T05:27:16.853Z,9.67
2019-02-09T05:29:47.137Z,10.00
2019-02-09T05:32:17.427Z,10.10
2019-02-09T05:34:47.714Z,9.23
2019-02-09T05:37:18.061Z,9.77
2019-02-09T05:39:48.413Z,9.67
2019-02-09T05:42:18.826Z,9.43
2019-02-09T05:44:49.108Z,9.53
2019-02-09T05:47:19.405Z,9.20
2019-02-09T05:49:49.811Z,9.60
2019-02-09T05:52:20.178Z,9.53
2019-02-09T05:54:51.048Z,9.30
2019-02-09T05:57:21.444Z,10.60
2019-02-09T05:59:51.745Z,10.40
2019-02-09T06:02:22.021Z,10.30
2019-02-09T06:04:52.415Z,9.73
2019-02-09T06:07:22.714Z,10.20
2019-02-09T06:09:53.469Z,9.37
2019-02-09T06:12:24.032Z,10.43
2019-02-09T06:14:54.777Z,11.20
2019-02-09T06:17:25.401Z,11.07
2019-02-09T06:19:55.859Z,11.13
2019-02-09T06:22:26.721Z,10.93
2019-02-09T06:24:57.087Z,10.80
2019-02-09T06:27:28.023Z,9.50
2019-02-09T06:29:58.549Z,10.60
2019-02-09T06:32:28.865Z,9.47
2019-02-09T06:34:59.348Z,9.47
2019-02-09T06:37:30.875Z,9.23
2019-02-09T06:40:01.227Z,10.47
2019-02-09T06:42:31.570Z,12.77
2019-02-09T06:45:03.339Z,13.47
2019-02-09T06:47:33.691Z,12.03
2019-02-09T06:50:06.987Z,18.77
2019-02-09T06:52:37.339Z,29.57
2019-02-09T06:55:10.984Z,15.33
2019-02-09T06:57:41.510Z,19.27
2019-02-09T07:00:14.531Z,13.87
2019-02-09T07:02:44.869Z,15.73
2019-02-09T07:05:20.944Z,13.47
2019-02-09T07:07:51.701Z,12.67
2019-02-09T07:10:25.697Z,14.23
2019-02-09T07:12:56.177Z,11.97
2019-02-09T07:15:33.059Z,14.30
2019-02-09T07:18:03.487Z,14.47
2019-02-09T07:20:33.800Z,13.33
2019-02-09T07:23:04.882Z,12.27
2019-02-09T07:25:35.221Z,12.77
2019-02-09T07:28:05.873Z,13.17
2019-02-09T07:30:36.872Z,12.80
2019-02-09T07:33:08.004Z,13.70
2019-02-09T07:35:38.803Z,14.60
2019-02-09T07:38:09.493Z,12.37
2019-02-09T07:40:41.760Z,13.37
2019-02-09T07:43:12.420Z,12.57
2019-02-09T07:45:43.167Z,13.20
2019-02-09T07:48:13.973Z,17.47
2019-02-09T07:50:44.428Z,16.33
2019-02-09T07:53:14.737Z,16.73
2019-02-09T07:55:45.964Z,15.10
2019-02-09T07:58:16.328Z,15.30
2019-02-09T08:00:46.598Z,14.00
2019-02-09T08:03:16.944Z,14.67
2019-02-09T08:05:47.495Z,14.27
2019-02-09T08:08:17.960Z,14.70
2019-02-09T08:10:48.390Z,16.70
2019-02-09T08:13:18.779Z,13.83
2019-02-09T08:15:49.123Z,14.90
2019-02-09T08:18:19.438Z,16.53
2019-02-09T08:20:49.781Z,16.53
2019-02-09T08:23:20.164Z,15.63
2019-02-09T08:25:50.423Z,13.70
2019-02-09T08:28:20.693Z,13.23
2019-02-09T08:30:51.458Z,12.03
2019-02-09T08:33:21.736Z,13.30
2019-02-09T08:35:52.339Z,12.80
2019-02-09T08:38:22.761Z,13.17
2019-02-09T08:40:53.062Z,11.93
2019-02-09T08:43:23.765Z,11.80
2019-02-09T08:45:54.093Z,11.40
2019-02-09T08:48:24.416Z,11.97
2019-02-09T08:51:01.002Z,12.30
2019-02-09T08:53:31.330Z,11.50
2019-02-09T08:56:01.650Z,11.87
2019-02-09T08:58:32.062Z,13.60
2019-02-09T09:01:02.383Z,13.40
2019-02-09T09:03:32.681Z,13.40
2019-02-09T09:06:03.016Z,12.07
2019-02-09T09:08:33.858Z,11.73
2019-02-09T09:11:04.587Z,12.93
2019-02-09T09:13:35.552Z,11.73
2019-02-09T09:16:07.828Z,14.17
2019-02-09T09:18:39.012Z,15.83
2019-02-09T09:21:09.927Z,13.77
2019-02-09T09:23:40.949Z,12.23
2019-02-09T09:26:12.741Z,10.70
2019-02-09T09:28:43.200Z,11.20
2019-02-09T09:31:13.787Z,12.07
2019-02-09T09:33:44.467Z,12.40
2019-02-09T09:36:14.780Z,14.67
2019-02-09T09:38:45.123Z,16.33
2019-02-09T09:41:15.491Z,17.00
2019-02-09T09:43:45.806Z,11.93
2019-02-09T09:46:17.771Z,13.53
2019-02-09T09:48:48.207Z,12.37
2019-02-09T09:51:18.502Z,12.73
2019-02-09T09:53:49.299Z,11.90
2019-02-09T09:56:20.748Z,14.40
2019-02-09T09:58:51.618Z,16.67
2019-02-09T10:01:23.914Z,14.93
2019-02-09T10:03:54.244Z,17.57
2019-02-09T10:06:24.532Z,10.90
2019-02-09T10:08:55.184Z,14.33
2019-02-09T10:11:27.576Z,10.73
2019-02-09T10:13:58.755Z,11.90
2019-02-09T10:16:29.194Z,11.50
2019-02-09T10:18:59.654Z,13.37
2019-02-09T10:21:29.948Z,11.63
2019-02-09T10:24:00.864Z,10.90
2019-02-09T10:26:32.978Z,10.73
2019-02-09T10:29:03.259Z,10.27
2019-02-09T10:31:33.617Z,10.80
2019-02-09T10:34:03.913Z,11.43
2019-02-09T10:36:34.261Z,10.20
2019-02-09T10:39:07.437Z,11.77
2019-02-09T10:41:37.775Z,11.20
2019-02-09T10:44:08.083Z,13.10
2019-02-09T10:46:38.403Z,13.33
2019-02-09T10:49:08.720Z,10.90
2019-02-09T10:51:38.998Z,10.00
2019-02-09T10:54:09.296Z,9.90
2019-02-09T10:56:39.570Z,9.30
2019-02-09T10:59:10.532Z,9.33
2019-02-09T11:01:41.046Z,9.20
2019-02-09T11:04:11.342Z,8.00
2019-02-09T11:06:41.641Z,9.13
2019-02-09T11:09:16.060Z,9.50
2019-02-09T11:11:46.343Z,8.20
2019-02-09T11:14:16.607Z,9.10
2019-02-09T11:16:46.899Z,8.17
2019-02-09T11:19:17.512Z,8.60
2019-02-09T11:21:48.266Z,8.00
2019-02-09T11:24:18.533Z,8.07
2019-02-09T11:26:48.881Z,7.40
2019-02-09T11:29:19.319Z,6.47
2019-02-09T11:31:50.124Z,6.73
2019-02-09T11:34:20.420Z,6.70
2019-02-09T11:36:50.765Z,6.73
2019-02-09T11:39:21.029Z,6.73
2019-02-09T11:41:51.382Z,7.00
2019-02-09T11:44:21.653Z,6.83
2019-02-09T11:46:51.958Z,6.10
2019-02-09T11:49:22.295Z,6.73
2019-02-09T11:51:52.588Z,5.77
2019-02-09T11:54:22.902Z,5.80
2019-02-09T11:56:53.205Z,6.17
2019-02-09T11:59:23.544Z,6.60
2019-02-09T12:01:53.861Z,4.73
2019-02-09T12:04:24.183Z,4.30
2019-02-09T12:06:54.577Z,5.10
2019-02-09T12:09:24.865Z,5.00
2019-02-09T12:11:57.136Z,5.53
2019-02-09T12:14:28.073Z,5.43
2019-02-09T12:16:58.469Z,4.93
2019-02-09T12:19:30.859Z,5.13
2019-02-09T12:22:01.828Z,4.60
2019-02-09T12:24:32.519Z,5.77
2019-02-09T12:27:03.098Z,4.83
2019-02-09T12:29:34.167Z,5.07
2019-02-09T12:32:04.431Z,5.23
2019-02-09T12:34:34.709Z,5.07
2019-02-09T12:37:05.019Z,5.50
2019-02-09T12:39:35.323Z,5.37
2019-02-09T12:42:05.876Z,4.60
2019-02-09T12:44:36.307Z,4.37
2019-02-09T12:47:06.621Z,4.87
2019-02-09T12:49:36.971Z,4.20
2019-02-09T12:52:07.430Z,4.23
2019-02-09T12:54:37.795Z,4.40
2019-02-09T12:57:08.514Z,4.93
2019-02-09T12:59:38.845Z,4.90
2019-02-09T13:02:09.417Z,4.87
2019-02-09T13:04:39.749Z,4.70
2019-02-09T13:07:10.037Z,5.23
2019-02-09T13:09:40.821Z,4.40
2019-02-09T13:12:11.759Z,5.47
2019-02-09T13:14:42.472Z,5.43
2019-02-09T13:17:13.132Z,5.53
2019-02-09T13:19:43.504Z,5.83
2019-02-09T13:22:14.114Z,6.37
2019-02-09T13:24:44.425Z,7.20
2019-02-09T13:27:14.720Z,7.23
2019-02-09T13:29:45.007Z,7.07
2019-02-09T13:32:15.416Z,6.30
2019-02-09T13:34:45.950Z,7.60
2019-02-09T13:37:18.045Z,7.23
2019-02-09T13:39:49.047Z,6.30
2019-02-09T13:42:19.538Z,7.10
2019-02-09T13:44:50.669Z,6.73
2019-02-09T13:47:21.500Z,7.20
2019-02-09T13:49:51.864Z,6.07
2019-02-09T13:52:22.203Z,5.63
2019-02-09T13:54:52.493Z,5.43
2019-02-09T13:57:23.332Z,5.60
2019-02-09T13:59:54.218Z,6.37
2019-02-09T14:02:25.225Z,6.13
2019-02-09T14:04:56.244Z,5.10
2019-02-09T14:07:27.178Z,5.13
2019-02-09T14:09:57.835Z,4.73
2019-02-09T14:12:28.575Z,5.43
2019-02-09T14:14:59.085Z,5.00
2019-02-09T14:17:29.442Z,5.97
2019-02-09T14:19:59.821Z,5.30
2019-02-09T14:22:30.495Z,5.80
2019-02-09T14:25:01.918Z,7.10
2019-02-09T14:27:32.667Z,7.90
2019-02-09T14:30:05.293Z,7.00
2019-02-09T14:32:35.864Z,6.33
2019-02-09T14:35:08.291Z,7.03
2019-02-09T14:37:40.227Z,7.53
2019-02-09T14:40:21.626Z,7.10
2019-02-09T14:42:52.925Z,7.47
2019-02-09T14:45:29.867Z,8.27
2019-02-09T14:48:00.370Z,7.23
2019-02-09T14:50:31.392Z,6.83
2019-02-09T14:53:01.979Z,5.83
2019-02-09T14:55:37.764Z,5.10
2019-02-09T14:58:08.540Z,4.50
2019-02-09T15:00:41.293Z,4.43
2019-02-09T15:03:15.324Z,4.23
2019-02-09T15:05:45.655Z,5.23
2019-02-09T15:08:15.923Z,4.60
2019-02-09T15:10:46.310Z,4.73
2019-02-09T15:13:16.579Z,5.07
2019-02-09T15:15:54.076Z,5.47
2019-02-09T15:18:25.347Z,5.00
2019-02-09T15:21:07.739Z,5.37
2019-02-09T15:23:38.008Z,4.87
2019-02-09T15:26:08.309Z,5.57
2019-02-09T15:28:38.776Z,5.73
2019-02-09T15:31:09.379Z,5.17
2019-02-09T15:33:40.194Z,5.10
2019-02-09T15:36:10.588Z,5.10
2019-02-09T15:38:41.304Z,6.20
2019-02-09T15:41:11.597Z,5.13
2019-02-09T15:43:42.107Z,5.17
2019-02-09T15:46:12.593Z,4.77
2019-02-09T15:48:43.278Z,6.17
2019-02-09T15:51:13.971Z,6.83
2019-02-09T15:53:44.295Z,8.17
2019-02-09T15:56:15.738Z,8.70
2019-02-09T15:58:46.274Z,11.00
2019-02-09T16:01:16.876Z,9.93
2019-02-09T16:03:47.223Z,10.07
2019-02-09T16:06:17.843Z,9.10
2019-02-09T16:08:48.580Z,10.07
2019-02-09T16:11:20.567Z,10.93
2019-02-09T16:13:51.205Z,8.87
2019-02-09T16:16:21.875Z,9.53
2019-02-09T16:18:52.229Z,8.23
2019-02-09T16:21:22.582Z,9.13
2019-02-09T16:23:53.493Z,9.27
2019-02-09T16:26:23.782Z,9.23
2019-02-09T16:28:54.144Z,10.43
2019-02-09T16:31:24.484Z,11.00
2019-02-09T16:33:54.865Z,10.60
2019-02-09T16:36:25.374Z,10.93
2019-02-09T16:38:56.178Z,11.23
2019-02-09T16:41:27.474Z,11.93
2019-02-09T16:43:58.621Z,10.07
2019-02-09T16:46:29.528Z,10.27
2019-02-09T16:49:00.608Z,10.63
2019-02-09T16:51:31.256Z,9.37
2019-02-09T16:54:01.601Z,10.10
2019-02-09T16:56:32.035Z,9.80
2019-02-09T16:59:02.300Z,8.70
2019-02-09T17:01:32.726Z,8.20
2019-02-09T17:04:03.012Z,7.40
2019-02-09T17:06:33.295Z,7.70
2019-02-09T17:09:05.417Z,8.13
2019-02-09T17:11:36.669Z,6.97
2019-02-09T17:14:07.096Z,9.30
2019-02-09T17:16:37.386Z,8.83
2019-02-09T17:19:08.876Z,7.30
2019-02-09T17:21:39.342Z,6.57
2019-02-09T17:24:09.637Z,9.57
2019-02-09T17:26:40.483Z,20.10
2019-02-09T17:29:10.800Z,19.30
2019-02-09T17:31:41.178Z,11.40
2019-02-09T17:34:12.998Z,8.37
2019-02-09T17:36:43.307Z,7.47
2019-02-09T17:39:13.682Z,8.17
2019-02-09T17:41:43.984Z,8.37
2019-02-09T17:44:14.737Z,7.93
2019-02-09T17:46:46.059Z,8.73
2019-02-09T17:49:16.343Z,9.43
2019-02-09T17:51:46.619Z,8.20
2019-02-09T17:54:17.774Z,7.53
2019-02-09T17:56:48.050Z,7.07
2019-02-09T17:59:18.347Z,8.43
2019-02-09T18:01:48.713Z,15.50
2019-02-09T18:04:19.134Z,14.00
2019-02-09T18:06:49.424Z,9.93
2019-02-09T18:09:19.989Z,13.67
2019-02-09T18:11:50.273Z,9.07
2019-02-09T18:14:22.143Z,8.13
2019-02-09T18:16:52.448Z,11.33
2019-02-09T18:19:22.840Z,9.57
2019-02-09T18:21:53.149Z,8.60
2019-02-09T18:24:23.603Z,8.30
2019-02-09T18:26:54.100Z,8.93
2019-02-09T18:29:24.384Z,9.47
2019-02-09T18:31:54.668Z,8.83
2019-02-09T18:34:25.727Z,10.40
2019-02-09T18:36:56.015Z,9.53
2019-02-09T18:39:26.304Z,9.37
2019-02-09T18:41:58.463Z,10.00
2019-02-09T18:44:28.867Z,9.53
2019-02-09T18:46:59.233Z,10.37
2019-02-09T18:49:29.601Z,9.63
2019-02-09T18:51:59.930Z,10.80
2019-02-09T18:54:30.362Z,9.47
2019-02-09T18:57:00.718Z,10.67
2019-02-09T18:59:32.002Z,9.50
2019-02-09T19:02:02.345Z,8.57
2019-02-09T19:04:33.668Z,8.80
2019-02-09T19:07:04.013Z,8.23
2019-02-09T19:09:34.798Z,7.70
2019-02-09T19:12:05.111Z,7.97
2019-02-09T19:14:35.732Z,7.50
2019-02-09T19:17:06.259Z,7.50
2019-02-09T19:19:36.686Z,6.90
2019-02-09T19:22:07.032Z,8.13
2019-02-09T19:24:37.462Z,7.70
2019-02-09T19:27:07.945Z,8.13
2019-02-09T19:29:38.285Z,8.60
2019-02-09T19:32:08.569Z,8.53
2019-02-09T19:34:38.867Z,6.97
2019-02-09T19:37:09.215Z,8.33
2019-02-09T19:39:41.256Z,8.30
2019-02-09T19:42:11.732Z,7.63
2019-02-09T19:44:42.009Z,9.37
2019-02-09T19:47:12.359Z,8.80
2019-02-09T19:49:43.076Z,8.57
2019-02-09T19:52:13.473Z,12.80
2019-02-09T19:54:43.995Z,10.40
2019-02-09T19:57:14.258Z,9.50
2019-02-09T19:59:44.583Z,9.50
2019-02-09T20:02:15.027Z,8.30
2019-02-09T20:04:45.417Z,7.13
2019-02-09T20:07:15.750Z,7.67
2019-02-09T20:09:46.147Z,7.43
2019-02-09T20:12:16.484Z,7.70
2019-02-09T20:14:47.090Z,7.40
2019-02-09T20:17:17.475Z,8.63
2019-02-09T20:19:47.779Z,7.70
2019-02-09T20:22:18.060Z,9.87
2019-02-09T20:24:48.444Z,10.00
2019-02-09T20:27:18.762Z,8.67
2019-02-09T20:29:49.062Z,8.73
2019-02-09T20:32:19.355Z,8.83
2019-02-09T20:34:50.667Z,9.73
2019-02-09T20:37:21.245Z,11.83
2019-02-09T20:39:52.072Z,8.83
2019-02-09T20:42:23.626Z,10.07
2019-02-09T20:44:54.106Z,8.50
2019-02-09T20:47:24.493Z,8.40
2019-02-09T20:49:54.979Z,7.97
2019-02-09T20:52:27.357Z,8.73
2019-02-09T20:54:58.726Z,9.63
2019-02-09T20:57:29.000Z,8.10
2019-02-09T20:59:59.309Z,7.83
2019-02-09T21:02:29.920Z,8.07
2019-02-09T21:05:00.791Z,7.57
2019-02-09T21:07:31.358Z,7.20
2019-02-09T21:10:01.759Z,7.87
2019-02-09T21:12:33.122Z,7.70
2019-02-09T21:15:03.453Z,9.00
2019-02-09T21:17:33.716Z,6.00
2019-02-09T21:20:08.265Z,4.97
2019-02-09T21:22:38.539Z,4.80
2019-02-09T21:25:17.841Z,4.30
2019-02-09T21:27:49.658Z,3.33
2019-02-09T21:30:21.681Z,3.23
2019-02-09T21:32:52.011Z,2.83
2019-02-09T21:35:22.738Z,2.70
2019-02-09T21:37:52.976Z,3.17
2019-02-09T21:40:29.626Z,2.97
2019-02-09T21:43:00.423Z,3.00
2019-02-09T21:45:31.106Z,2.93
2019-02-09T21:48:01.404Z,3.33
2019-02-09T21:50:33.218Z,3.23
2019-02-09T21:53:03.484Z,4.43
2019-02-09T21:55:33.796Z,3.50
2019-02-09T21:58:04.240Z,3.80
2019-02-09T22:00:42.862Z,3.77
2019-02-09T22:03:13.908Z,4.07
2019-02-09T22:05:51.480Z,4.30
2019-02-09T22:08:19.576Z,5.50
2019-02-09T22:10:49.495Z,5.20
2019-02-09T22:13:19.794Z,5.37
2019-02-09T22:15:51.622Z,4.73
2019-02-09T22:18:22.760Z,4.70
2019-02-09T22:20:54.050Z,5.47
2019-02-09T22:23:25.421Z,5.30
2019-02-09T22:25:56.714Z,4.70
2019-02-09T22:28:27.471Z,4.23
2019-02-09T22:30:57.867Z,6.83
2019-02-09T22:33:28.119Z,7.23
2019-02-09T22:36:00.297Z,4.73
2019-02-09T22:38:30.737Z,6.57
2019-02-09T22:41:01.581Z,10.10
2019-02-09T22:43:31.872Z,13.40
2019-02-09T22:46:03.810Z,5.77
2019-02-09T22:48:34.509Z,4.70
2019-02-09T22:51:04.876Z,3.93
2019-02-09T22:53:35.336Z,4.50
2019-02-09T22:56:06.246Z,4.97
2019-02-09T22:58:36.630Z,4.40
2019-02-09T23:01:16.005Z,4.63
2019-02-09T23:03:49.539Z,4.37
2019-02-09T23:06:34.843Z,3.77
2019-02-09T23:09:07.625Z,4.87
2019-02-09T23:11:38.947Z,3.70
2019-02-09T23:14:09.913Z,4.80
2019-02-09T23:16:40.235Z,4.20
2019-02-09T23:19:10.511Z,4.73
2019-02-09T23:21:40.863Z,4.37
2019-02-09T23:24:11.137Z,4.13
2019-02-09T23:26:41.427Z,4.23
2019-02-09T23:29:11.828Z,4.07
2019-02-09T23:31:42.114Z,3.83
2019-02-09T23:34:12.429Z,3.97
2019-02-09T23:36:42.708Z,4.60
2019-02-09T23:39:12.975Z,4.33
2019-02-09T23:41:46.459Z,4.57
2019-02-09T23:44:16.724Z,4.43
2019-02-09T23:46:48.620Z,4.30
2019-02-09T23:49:19.065Z,3.80
2019-02-09T23:51:49.354Z,3.30
2019-02-09T23:54:19.613Z,3.57
2019-02-09T23:56:49.975Z,3.60
2019-02-09T23:59:20.248Z,3.27
